Time,TemperatureF,DewpointF,PressureIn,WindDirection,WindDirectionDegrees,WindSpeedMPH,WindSpeedGustMPH,Humidity,HourlyPrecipIn,Conditions,Clouds,dailyrainin,SoftwareType,DateUTC
2013-02-23 00:02:00,24.6,-1.1,29.94,WSW,247,3.5,3.5,32,0.00,OVC,,0.00,WeatherDisplay:10.37,2013-02-23 06:02:00,
2013-02-23 00:07:00,24.6,-1.1,29.94,West,261,5.8,0.0,32,0.00,OVC,,0.00,WeatherDisplay:10.37,2013-02-23 06:07:00,
2013-02-23 00:12:00,24.6,-1.1,29.94,SSW,203,5.8,5.8,32,0.00,OVC,,0.00,WeatherDisplay:10.37,2013-02-23 06:12:00,
2013-02-23 00:17:00,24.4,-1.3,29.94,West,259,3.5,0.0,32,0.00,OVC,,0.00,WeatherDisplay:10.37,2013-02-23 06:17:00,
2013-02-23 00:23:00,24.4,-0.6,29.94,West,259,0.0,0.0,33,0.00,OVC,,0.00,WeatherDisplay:10.37,2013-02-23 06:23:00,
2013-02-23 00:28:00,24.4,-0.6,29.94,West,265,3.5,3.5,33,0.00,OVC,,0.00,WeatherDisplay:10.37,2013-02-23 06:28:00,
2013-02-23 00:33:00,24.4,-0.6,29.94,SW,230,0.0,0.0,33,0.00,OVC,,0.00,WeatherDisplay:10.37,2013-02-23 06:33:00,
2013-02-23 00:38:00,24.4,-0.6,29.94,WNW,286,5.8,5.8,33,0.00,OVC,,0.00,WeatherDisplay:10.37,2013-02-23 06:38:00,
2013-02-23 00:43:00,24.4,-0.6,29.94,West,262,3.5,0.0,33,0.00,OVC,,0.00,WeatherDisplay:10.37,2013-02-23 06:43:00,
2013-02-23 00:48:00,24.3,-0.8,29.94,SSW,209,6.3,0.0,33,0.00,OVC,,0.00,WeatherDisplay:10.37,2013-02-23 06:48:00,
2013-02-23 00:53:00,24.3,-0.8,29.94,WSW,257,5.8,0.0,33,0.00,OVC,,0.00,WeatherDisplay:10.37,2013-02-23 06:53:00,
2013-02-23 00:58:00,24.3,-1.4,29.94,West,260,3.5,3.5,32,0.00,OVC,,0.00,WeatherDisplay:10.37,2013-02-23 06:58:00,
2013-02-23 01:03:00,24.3,-1.4,29.94,SW,230,3.5,0.0,32,0.00,OVC,,0.00,WeatherDisplay:10.37,2013-02-23 07:03:00,
2013-02-23 01:08:00,24.3,-1.4,29.94,West,259,0.0,0.0,32,0.00,OVC,,0.00,WeatherDisplay:10.37,2013-02-23 07:08:00,
2013-02-23 01:13:00,24.1,-1.6,29.94,West,262,4.6,0.0,32,0.00,OVC,,0.00,WeatherDisplay:10.37,2013-02-23 07:13:00,
2013-02-23 01:18:00,24.1,-1.6,29.94,West,262,4.6,4.6,32,0.00,OVC,,0.00,WeatherDisplay:10.37,2013-02-23 07:18:00,
2013-02-23 01:23:00,24.1,-1.6,29.94,NW,324,3.5,3.5,32,0.00,OVC,,0.00,WeatherDisplay:10.37,2013-02-23 07:23:00,
2013-02-23 01:28:00,24.1,-1.6,29.94,West,280,2.3,0.0,32,0.00,OVC,,0.00,WeatherDisplay:10.37,2013-02-23 07:28:00,
2013-02-23 01:33:00,23.9,-1.7,29.94,WSW,249,3.5,0.0,32,0.00,OVC,,0.00,WeatherDisplay:10.37,2013-02-23 07:33:00,
2013-02-23 01:38:00,23.9,-1.7,29.94,West,270,0.0,0.0,32,0.00,OVC,,0.00,WeatherDisplay:10.37,2013-02-23 07:38:00,
2013-02-23 01:43:00,23.9,-1.7,29.94,WSW,258,5.8,5.8,32,0.00,OVC,,0.00,WeatherDisplay:10.37,2013-02-23 07:43:00,
2013-02-23 01:48:00,23.9,-1.7,29.94,WSW,253,0.0,0.0,32,0.00,OVC,,0.00,WeatherDisplay:10.37,2013-02-23 07:48:00,
2013-02-23 01:53:00,23.9,-1.7,29.94,SSW,200,3.5,3.5,32,0.00,OVC,,0.00,WeatherDisplay:10.37,2013-02-23 07:53:00,
2013-02-23 01:58:00,23.9,-1.7,29.94,SSW,196,3.5,4.5,32,0.00,OVC,,0.00,WeatherDisplay:10.37,2013-02-23 07:58:00,
2013-02-23 02:03:00,23.9,-1.7,29.94,SW,234,2.3,0.0,32,0.00,OVC,,0.00,WeatherDisplay:10.37,2013-02-23 08:03:00,
2013-02-23 02:08:00,23.9,-1.7,29.94,SW,233,2.3,0.0,32,0.00,OVC,,0.00,WeatherDisplay:10.37,2013-02-23 08:08:00,
2013-02-23 02:13:00,23.9,-1.7,29.94,SW,236,0.0,0.0,32,0.00,OVC,,0.00,WeatherDisplay:10.37,2013-02-23 08:13:00,
2013-02-23 02:19:00,23.9,-1.7,29.94,WSW,256,2.3,0.0,32,0.00,OVC,,0.00,WeatherDisplay:10.37,2013-02-23 08:19:00,
2013-02-23 02:24:00,23.9,-1.7,29.94,WSW,247,0.0,0.0,32,0.00,OVC,,0.00,WeatherDisplay:10.37,2013-02-23 08:24:00,
2013-02-23 02:29:00,23.7,-1.9,29.94,West,273,5.8,5.8,32,0.00,OVC,,0.00,WeatherDisplay:10.37,2013-02-23 08:29:00,
2013-02-23 02:34:00,23.7,-1.9,29.94,WSW,249,0.0,0.0,32,0.00,OVC,,0.00,WeatherDisplay:10.37,2013-02-23 08:34:00,
2013-02-23 02:39:00,23.7,-1.9,29.94,WSW,243,3.5,0.0,32,0.00,OVC,,0.00,WeatherDisplay:10.37,2013-02-23 08:39:00,
2013-02-23 02:44:00,23.7,-1.2,29.94,West,269,0.0,0.0,33,0.00,OVC,,0.00,WeatherDisplay:10.37,2013-02-23 08:44:00,
2013-02-23 02:49:00,23.7,-1.2,29.94,West,265,0.0,0.0,33,0.00,OVC,,0.00,WeatherDisplay:10.37,2013-02-23 08:49:00,
2013-02-23 02:54:00,23.7,-1.2,29.94,WSW,242,0.0,0.0,33,0.00,OVC,,0.00,WeatherDisplay:10.37,2013-02-23 08:54:00,
2013-02-23 02:59:00,23.7,-1.2,29.94,SSW,212,3.5,3.5,33,0.00,OVC,,0.00,WeatherDisplay:10.37,2013-02-23 08:59:00,
2013-02-23 03:04:00,23.7,-1.2,29.94,South,183,3.5,3.5,33,0.00,OVC,,0.00,WeatherDisplay:10.37,2013-02-23 09:04:00,
2013-02-23 03:09:00,23.7,-1.2,29.94,WSW,245,3.5,3.5,33,0.00,OVC,,0.00,WeatherDisplay:10.37,2013-02-23 09:09:00,
2013-02-23 03:14:00,23.7,-1.2,29.94,SW,236,3.5,3.5,33,0.00,OVC,,0.00,WeatherDisplay:10.37,2013-02-23 09:14:00,
2013-02-23 03:19:00,23.7,-1.9,29.94,SW,230,5.8,5.8,32,0.00,OVC,,0.00,WeatherDisplay:10.37,2013-02-23 09:19:00,
2013-02-23 03:24:00,23.7,-1.9,29.94,West,268,0.0,0.0,32,0.00,OVC,,0.00,WeatherDisplay:10.37,2013-02-23 09:24:00,
2013-02-23 03:29:00,23.7,-1.9,29.91,West,260,3.5,3.5,32,0.00,OVC,,0.00,WeatherDisplay:10.37,2013-02-23 09:29:00,
2013-02-23 03:34:00,23.5,-2.1,29.91,WSW,253,3.5,3.5,32,0.00,OVC,,0.00,WeatherDisplay:10.37,2013-02-23 09:34:00,
2013-02-23 03:39:00,23.5,-2.1,29.91,West,263,5.8,5.8,32,0.00,OVC,,0.00,WeatherDisplay:10.37,2013-02-23 09:39:00,
2013-02-23 03:44:00,23.5,-2.1,29.91,WSW,256,2.3,0.0,32,0.00,OVC,,0.00,WeatherDisplay:10.37,2013-02-23 09:44:00,
2013-02-23 03:49:00,23.5,-2.1,29.91,SSW,193,8.1,8.1,32,0.00,OVC,,0.00,WeatherDisplay:10.37,2013-02-23 09:49:00,
2013-02-23 03:54:00,23.5,-4.1,29.91,West,262,3.5,3.6,29,0.00,OVC,,0.00,WeatherDisplay:10.37,2013-02-23 09:54:00,
2013-02-23 03:59:00,23.5,-4.1,29.91,WSW,251,4.6,4.6,29,0.00,OVC,,0.00,WeatherDisplay:10.37,2013-02-23 09:59:00,
2013-02-23 04:04:00,23.5,-5.6,29.91,West,270,2.3,2.7,27,0.00,OVC,,0.00,WeatherDisplay:10.37,2013-02-23 10:04:00,
2013-02-23 04:09:00,23.5,-5.6,29.91,WSW,243,3.5,3.5,27,0.00,OVC,,0.00,WeatherDisplay:10.37,2013-02-23 10:09:00,
2013-02-23 04:14:00,23.4,-5.8,29.91,WNW,297,0.0,0.0,27,0.00,OVC,,0.00,WeatherDisplay:10.37,2013-02-23 10:14:00,
2013-02-23 04:19:00,23.4,-5.8,29.91,SW,231,3.5,3.5,27,0.00,OVC,,0.00,WeatherDisplay:10.37,2013-02-23 10:19:00,
2013-02-23 04:24:00,23.4,-8.2,29.91,West,267,5.8,5.8,24,0.00,OVC,,0.00,WeatherDisplay:10.37,2013-02-23 10:24:00,
2013-02-23 04:29:00,23.4,-8.2,29.94,SW,231,8.1,8.1,24,0.00,OVC,,0.00,WeatherDisplay:10.37,2013-02-23 10:29:00,
2013-02-23 04:34:00,23.4,-8.2,29.94,WSW,251,4.6,4.6,24,0.00,OVC,,0.00,WeatherDisplay:10.37,2013-02-23 10:34:00,
2013-02-23 04:39:00,23.4,-8.2,29.94,WSW,243,3.5,3.5,24,0.00,OVC,,0.00,WeatherDisplay:10.37,2013-02-23 10:39:00,
2013-02-23 04:44:00,23.4,-8.2,29.94,SSW,213,5.8,5.8,24,0.00,OVC,,0.00,WeatherDisplay:10.37,2013-02-23 10:44:00,
2013-02-23 04:49:00,23.4,-8.2,29.94,SW,231,5.8,5.8,24,0.00,OVC,,0.00,WeatherDisplay:10.37,2013-02-23 10:49:00,
2013-02-23 04:54:00,23.4,-8.2,29.94,West,265,3.5,0.0,24,0.00,OVC,,0.00,WeatherDisplay:10.37,2013-02-23 10:54:00,
2013-02-23 04:59:00,23.2,-8.3,29.94,South,180,5.8,5.8,24,0.00,OVC,,0.00,WeatherDisplay:10.37,2013-02-23 10:59:00,
2013-02-23 05:04:00,23.2,-8.3,29.94,West,276,5.8,5.8,24,0.00,OVC,,0.00,WeatherDisplay:10.37,2013-02-23 11:04:00,
2013-02-23 05:09:00,23.2,-8.3,29.94,SW,224,3.5,3.6,24,0.00,OVC,,0.00,WeatherDisplay:10.37,2013-02-23 11:09:00,
2013-02-23 05:14:00,23.2,-8.3,29.97,WSW,252,5.8,5.8,24,0.00,OVC,,0.00,WeatherDisplay:10.37,2013-02-23 11:14:00,
2013-02-23 05:19:00,23.2,-8.3,29.97,WNW,284,4.6,4.6,24,0.00,OVC,,0.00,WeatherDisplay:10.37,2013-02-23 11:19:00,
2013-02-23 05:24:00,23.2,-8.3,29.97,West,270,3.5,0.0,24,0.00,OVC,,0.00,WeatherDisplay:10.37,2013-02-23 11:24:00,
2013-02-23 05:29:00,23.2,-8.3,29.97,WSW,242,5.8,5.8,24,0.00,OVC,,0.00,WeatherDisplay:10.37,2013-02-23 11:29:00,
2013-02-23 05:34:00,23.2,-8.3,29.97,WSW,244,7.6,7.6,24,0.00,OVC,,0.00,WeatherDisplay:10.37,2013-02-23 11:34:00,
2013-02-23 05:39:00,23.2,-8.3,29.97,WNW,283,3.5,3.5,24,0.00,OVC,,0.00,WeatherDisplay:10.37,2013-02-23 11:39:00,
2013-02-23 05:44:00,23.2,-8.3,29.97,WSW,249,3.5,0.0,24,0.00,OVC,,0.00,WeatherDisplay:10.37,2013-02-23 11:44:00,
2013-02-23 05:49:00,23.2,-8.3,29.97,West,272,2.3,0.0,24,0.00,OVC,,0.00,WeatherDisplay:10.37,2013-02-23 11:49:00,
2013-02-23 05:54:00,23.2,-8.3,29.97,WSW,256,3.5,3.5,24,0.00,OVC,,0.00,WeatherDisplay:10.37,2013-02-23 11:54:00,
2013-02-23 05:59:00,23.0,-7.7,29.97,WSW,257,3.5,3.5,25,0.00,OVC,,0.00,WeatherDisplay:10.37,2013-02-23 11:59:00,
2013-02-23 06:04:00,23.0,-7.7,29.97,WSW,251,4.6,4.6,25,0.00,OVC,,0.00,WeatherDisplay:10.37,2013-02-23 12:04:00,
2013-02-23 06:09:00,23.0,-7.7,29.97,SW,216,2.3,2.7,25,0.00,OVC,,0.00,WeatherDisplay:10.37,2013-02-23 12:09:00,
2013-02-23 06:14:00,23.0,-7.7,29.97,West,278,3.5,0.0,25,0.00,OVC,,0.00,WeatherDisplay:10.37,2013-02-23 12:14:00,
2013-02-23 06:19:00,23.0,-7.7,29.97,West,267,3.5,0.0,25,0.00,OVC,,0.00,WeatherDisplay:10.37,2013-02-23 12:19:00,
2013-02-23 06:24:00,23.0,-7.7,29.97,SSW,201,0.0,0.0,25,0.00,OVC,,0.00,WeatherDisplay:10.37,2013-02-23 12:24:00,
2013-02-23 06:29:00,23.0,-7.7,29.97,SW,230,3.5,3.5,25,0.00,OVC,,0.00,WeatherDisplay:10.37,2013-02-23 12:29:00,
2013-02-23 06:34:00,23.0,-6.1,29.97,West,261,3.5,0.0,27,0.00,OVC,,0.00,WeatherDisplay:10.37,2013-02-23 12:34:00,
2013-02-23 06:39:00,23.0,-7.7,29.97,WSW,251,0.0,0.0,25,0.00,OVC,,0.00,WeatherDisplay:10.37,2013-02-23 12:39:00,
2013-02-23 06:44:00,23.0,-7.7,29.97,WSW,255,0.0,0.0,25,0.00,OVC,,0.00,WeatherDisplay:10.37,2013-02-23 12:44:00,
2013-02-23 06:49:00,23.0,-7.7,29.97,WSW,245,0.0,0.0,25,0.00,OVC,,0.00,WeatherDisplay:10.37,2013-02-23 12:49:00,
2013-02-23 06:54:00,23.0,-7.7,29.97,WSW,250,4.0,4.0,25,0.00,OVC,,0.00,WeatherDisplay:10.37,2013-02-23 12:54:00,
2013-02-23 06:59:00,23.0,-7.7,29.97,WSW,245,0.0,0.0,25,0.00,OVC,,0.00,WeatherDisplay:10.37,2013-02-23 12:59:00,
2013-02-23 07:04:00,23.0,-7.7,29.97,WSW,254,0.0,0.0,25,0.00,OVC,,0.00,WeatherDisplay:10.37,2013-02-23 13:04:00,
2013-02-23 07:09:00,23.0,-7.7,29.97,WSW,246,3.5,0.0,25,0.00,OVC,,0.00,WeatherDisplay:10.37,2013-02-23 13:09:00,
2013-02-23 07:14:00,23.0,-7.7,29.97,SW,225,3.5,3.5,25,0.00,OVC,,0.00,WeatherDisplay:10.37,2013-02-23 13:14:00,
2013-02-23 07:19:00,23.2,-8.3,29.97,SW,230,5.8,5.8,24,0.00,OVC,,0.00,WeatherDisplay:10.37,2013-02-23 13:19:00,
2013-02-23 07:24:00,23.2,-8.3,29.97,WSW,245,0.0,0.0,24,0.00,OVC,,0.00,WeatherDisplay:10.37,2013-02-23 13:24:00,
2013-02-23 07:29:00,23.2,-8.3,29.97,WSW,238,0.0,0.0,24,0.00,OVC,,0.00,WeatherDisplay:10.37,2013-02-23 13:29:00,
2013-02-23 07:34:00,23.2,-8.3,29.97,WSW,256,2.3,0.0,24,0.00,OVC,,0.00,WeatherDisplay:10.37,2013-02-23 13:34:00,
2013-02-23 07:39:00,23.2,-8.3,29.97,SW,230,4.0,4.0,24,0.00,OVC,,0.00,WeatherDisplay:10.37,2013-02-23 13:39:00,
2013-02-23 07:44:00,23.2,-8.3,29.97,WSW,247,3.5,3.5,24,0.00,OVC,,0.00,WeatherDisplay:10.37,2013-02-23 13:44:00,
2013-02-23 07:49:00,23.4,-8.2,29.97,WSW,246,3.5,0.0,24,0.00,OVC,,0.00,WeatherDisplay:10.37,2013-02-23 13:49:00,
2013-02-23 07:54:00,23.4,-8.2,29.97,West,271,3.5,0.0,24,0.00,OVC,,0.00,WeatherDisplay:10.37,2013-02-23 13:54:00,
2013-02-23 07:59:00,23.4,-8.2,29.97,SW,221,5.8,5.8,24,0.00,OVC,,0.00,WeatherDisplay:10.37,2013-02-23 13:59:00,
2013-02-23 08:04:00,23.5,-8.0,29.97,West,279,4.6,0.0,24,0.00,OVC,,0.00,WeatherDisplay:10.37,2013-02-23 14:04:00,
2013-02-23 08:09:00,23.5,-8.0,29.97,WSW,244,2.3,0.0,24,0.00,OVC,,0.00,WeatherDisplay:10.37,2013-02-23 14:09:00,
2013-02-23 08:14:00,23.5,-8.0,30.00,WSW,243,3.5,3.5,24,0.00,OVC,,0.00,WeatherDisplay:10.37,2013-02-23 14:14:00,
2013-02-23 08:19:00,23.5,-8.0,30.00,WSW,252,0.0,0.0,24,0.00,OVC,,0.00,WeatherDisplay:10.37,2013-02-23 14:19:00,
2013-02-23 08:24:00,23.7,-7.9,30.00,West,263,5.8,5.8,24,0.00,OVC,,0.00,WeatherDisplay:10.37,2013-02-23 14:24:00,
2013-02-23 08:29:00,23.7,-7.9,30.00,West,263,3.5,3.5,24,0.00,OVC,,0.00,WeatherDisplay:10.37,2013-02-23 14:29:00,
2013-02-23 08:34:00,23.7,-9.7,30.00,WNW,290,5.8,5.8,22,0.00,OVC,,0.00,WeatherDisplay:10.37,2013-02-23 14:34:00,
2013-02-23 08:39:00,23.9,-9.5,30.00,West,266,3.5,3.5,22,0.00,OVC,,0.00,WeatherDisplay:10.37,2013-02-23 14:39:00,
2013-02-23 08:44:00,24.1,-9.4,30.00,WNW,290,3.5,3.5,22,0.00,OVC,,0.00,WeatherDisplay:10.37,2013-02-23 14:44:00,
2013-02-23 08:49:00,24.1,-9.4,30.00,WSW,246,0.0,0.0,22,0.00,OVC,,0.00,WeatherDisplay:10.37,2013-02-23 14:49:00,
2013-02-23 08:54:00,24.3,-9.2,30.00,WSW,250,3.5,0.0,22,0.00,OVC,,0.00,WeatherDisplay:10.37,2013-02-23 14:54:00,
2013-02-23 08:59:00,24.4,-9.0,30.00,WSW,256,5.8,5.8,22,0.00,OVC,,0.00,WeatherDisplay:10.37,2013-02-23 14:59:00,
2013-02-23 09:04:00,24.4,-9.0,30.00,SSE,147,3.5,0.0,22,0.00,OVC,,0.00,WeatherDisplay:10.37,2013-02-23 15:04:00,
2013-02-23 09:09:00,24.4,-9.0,30.00,WSW,252,3.5,0.0,22,0.00,OVC,,0.00,WeatherDisplay:10.37,2013-02-23 15:09:00,
2013-02-23 09:14:00,24.6,-8.9,30.00,WNW,295,3.5,3.5,22,0.00,OVC,,0.00,WeatherDisplay:10.37,2013-02-23 15:14:00,
2013-02-23 09:19:00,24.8,-8.7,30.00,West,275,5.8,0.0,22,0.00,OVC,,0.00,WeatherDisplay:10.37,2013-02-23 15:19:00,
2013-02-23 09:24:00,25.0,-9.5,30.00,SW,219,3.5,3.5,21,0.00,OVC,,0.00,WeatherDisplay:10.37,2013-02-23 15:24:00,
2013-02-23 09:29:00,25.0,-9.5,30.00,SSE,151,5.8,5.8,21,0.00,OVC,,0.00,WeatherDisplay:10.37,2013-02-23 15:29:00,
2013-02-23 09:34:00,25.0,-11.6,30.00,SE,127,3.5,3.5,19,0.00,OVC,,0.00,WeatherDisplay:10.37,2013-02-23 15:34:00,
2013-02-23 09:39:00,25.0,-11.6,30.00,SW,218,6.9,6.9,19,0.00,OVC,,0.00,WeatherDisplay:10.37,2013-02-23 15:39:00,
2013-02-23 09:44:00,25.0,-11.6,30.00,WSW,253,3.5,0.0,19,0.00,OVC,,0.00,WeatherDisplay:10.37,2013-02-23 15:44:00,
2013-02-23 09:49:00,25.2,-9.4,30.00,West,263,0.0,0.0,21,0.00,OVC,,0.00,WeatherDisplay:10.37,2013-02-23 15:49:00,
2013-02-23 09:54:00,25.3,-9.2,30.00,WSW,247,5.8,5.8,21,0.00,OVC,,0.00,WeatherDisplay:10.37,2013-02-23 15:54:00,
2013-02-23 09:59:00,25.3,-11.3,30.00,SW,232,3.5,3.5,19,0.00,OVC,,0.00,WeatherDisplay:10.37,2013-02-23 15:59:00,
2013-02-23 10:04:00,25.5,-11.1,30.00,WSW,257,8.1,8.1,19,0.00,OVC,,0.00,WeatherDisplay:10.37,2013-02-23 16:04:00,
2013-02-23 10:09:00,25.7,-11.0,30.00,SW,218,3.5,3.5,19,0.00,OVC,,0.00,WeatherDisplay:10.37,2013-02-23 16:09:00,
2013-02-23 10:14:00,26.1,-10.7,30.00,WNW,283,0.0,2.2,19,0.00,OVC,,0.00,WeatherDisplay:10.37,2013-02-23 16:14:00,
2013-02-23 10:19:00,26.1,-10.7,30.00,WNW,283,3.5,3.5,19,0.00,OVC,,0.00,WeatherDisplay:10.37,2013-02-23 16:19:00,
2013-02-23 10:24:00,26.2,-10.5,30.00,West,267,8.1,0.0,19,0.00,OVC,,0.00,WeatherDisplay:10.37,2013-02-23 16:24:00,
2013-02-23 10:29:00,26.6,-10.2,30.00,West,270,3.5,0.0,19,0.00,OVC,,0.00,WeatherDisplay:10.37,2013-02-23 16:29:00,
2013-02-23 10:34:00,26.8,-11.2,30.00,South,171,3.5,3.5,18,0.00,OVC,,0.00,WeatherDisplay:10.37,2013-02-23 16:34:00,
2013-02-23 10:39:00,26.8,-11.2,30.00,SSE,153,5.8,5.8,18,0.00,OVC,,0.00,WeatherDisplay:10.37,2013-02-23 16:39:00,
2013-02-23 10:44:00,26.6,-10.2,30.00,West,262,4.6,4.6,19,0.00,OVC,,0.00,WeatherDisplay:10.37,2013-02-23 16:44:00,
2013-02-23 10:49:00,26.8,-11.2,30.00,WSW,255,5.8,5.8,18,0.00,OVC,,0.00,WeatherDisplay:10.37,2013-02-23 16:49:00,
2013-02-23 10:54:00,27.0,-11.0,30.00,WNW,295,4.6,4.6,18,0.00,OVC,,0.00,WeatherDisplay:10.37,2013-02-23 16:54:00,
2013-02-23 10:59:00,27.0,-11.0,30.00,WSW,258,5.8,5.8,18,0.00,OVC,,0.00,WeatherDisplay:10.37,2013-02-23 16:59:00,
2013-02-23 11:04:00,27.1,-10.9,30.00,SSW,204,3.5,0.0,18,0.00,OVC,,0.00,WeatherDisplay:10.37,2013-02-23 17:04:00,
2013-02-23 11:09:00,27.5,-10.6,30.00,WNW,289,3.5,0.0,18,0.00,OVC,,0.00,WeatherDisplay:10.37,2013-02-23 17:09:00,
2013-02-23 11:14:00,27.5,-10.6,30.00,SW,235,5.8,5.8,18,0.00,OVC,,0.00,WeatherDisplay:10.37,2013-02-23 17:14:00,
2013-02-23 11:19:00,27.7,-10.4,30.00,West,272,3.5,3.5,18,0.00,OVC,,0.00,WeatherDisplay:10.37,2013-02-23 17:19:00,
2013-02-23 11:24:00,27.9,-10.3,30.00,NNW,334,3.5,0.0,18,0.00,OVC,,0.00,WeatherDisplay:10.37,2013-02-23 17:24:00,
2013-02-23 11:29:00,28.0,-10.1,30.00,WNW,295,5.8,5.8,18,0.00,OVC,,0.00,WeatherDisplay:10.37,2013-02-23 17:29:00,
2013-02-23 11:34:00,28.6,-9.7,30.00,West,262,3.5,0.0,18,0.00,OVC,,0.00,WeatherDisplay:10.37,2013-02-23 17:34:00,
2013-02-23 11:39:00,28.6,-9.7,30.00,West,281,2.3,0.0,18,0.00,OVC,,0.00,WeatherDisplay:10.37,2013-02-23 17:39:00,
2013-02-23 11:44:00,28.9,-9.4,29.97,NW,315,3.5,3.6,18,0.00,OVC,,0.00,WeatherDisplay:10.37,2013-02-23 17:44:00,
2013-02-23 11:49:00,28.9,-13.0,29.97,West,273,0.0,0.0,15,0.00,OVC,,0.00,WeatherDisplay:10.37,2013-02-23 17:49:00,
2013-02-23 11:54:00,29.5,-12.6,29.97,West,272,0.0,0.0,15,0.00,OVC,,0.00,WeatherDisplay:10.37,2013-02-23 17:54:00,
2013-02-23 11:59:00,30.2,-12.0,29.97,NNW,330,3.5,3.6,15,0.00,OVC,,0.00,WeatherDisplay:10.37,2013-02-23 17:59:00,
2013-02-23 12:04:00,30.2,-12.0,29.97,WNW,298,0.0,0.0,15,0.00,OVC,,0.00,WeatherDisplay:10.37,2013-02-23 18:04:00,
2013-02-23 12:09:00,30.6,-11.7,29.97,SSW,207,3.5,0.0,15,0.00,BKN,OVC,0.00,WeatherDisplay:10.37,2013-02-23 18:09:00,
2013-02-23 12:14:00,31.5,-11.0,29.97,West,262,3.5,3.5,15,0.00,BKN,OVC,0.00,WeatherDisplay:10.37,2013-02-23 18:14:00,
2013-02-23 12:19:00,31.8,-10.7,29.97,WNW,285,5.8,0.0,15,0.00,BKN,OVC,0.00,WeatherDisplay:10.37,2013-02-23 18:19:00,
2013-02-23 12:24:00,31.1,-11.3,29.97,WSW,237,5.8,5.8,15,0.00,BKN,OVC,0.00,WeatherDisplay:10.37,2013-02-23 18:24:00,
2013-02-23 12:29:00,31.1,-11.3,29.97,WSW,250,3.5,3.5,15,0.00,BKN,OVC,0.00,WeatherDisplay:10.37,2013-02-23 18:29:00,
2013-02-23 12:34:00,31.8,-10.7,29.97,NW,321,2.3,0.0,15,0.00,BKN,OVC,0.00,WeatherDisplay:10.37,2013-02-23 18:34:00,
2013-02-23 12:39:00,32.2,-10.4,29.97,NW,310,3.5,0.0,15,0.00,BKN,OVC,0.00,WeatherDisplay:10.37,2013-02-23 18:39:00,
2013-02-23 12:44:00,32.2,-10.4,29.97,NNW,343,5.8,5.8,15,0.00,BKN,OVC,0.00,WeatherDisplay:10.37,2013-02-23 18:44:00,
2013-02-23 12:49:00,32.4,-10.2,29.97,West,266,5.8,5.8,15,0.00,BKN,OVC,0.00,WeatherDisplay:10.37,2013-02-23 18:49:00,
2013-02-23 12:54:00,32.7,-10.0,29.97,West,261,2.3,0.0,15,0.00,BKN,OVC,0.00,WeatherDisplay:10.37,2013-02-23 18:54:00,
2013-02-23 12:59:00,33.1,-9.7,29.97,WNW,283,3.5,0.0,15,0.00,BKN,OVC,0.00,WeatherDisplay:10.37,2013-02-23 18:59:00,
2013-02-23 13:04:00,33.1,-9.7,29.97,WSW,253,3.5,0.0,15,0.00,BKN,OVC,0.00,WeatherDisplay:10.37,2013-02-23 19:04:00,
2013-02-23 13:09:00,32.5,-10.1,29.97,NNW,343,8.1,8.1,15,0.00,FEW,OVC,0.00,WeatherDisplay:10.37,2013-02-23 19:09:00,
2013-02-23 13:14:00,32.4,-10.2,29.97,WSW,247,3.5,3.5,15,0.00,FEW,OVC,0.00,WeatherDisplay:10.37,2013-02-23 19:14:00,
2013-02-23 13:19:00,32.5,-10.1,29.97,NW,317,0.0,0.0,15,0.00,FEW,OVC,0.00,WeatherDisplay:10.37,2013-02-23 19:19:00,
2013-02-23 13:24:00,32.7,-10.0,29.97,SW,234,5.8,5.8,15,0.00,FEW,OVC,0.00,WeatherDisplay:10.37,2013-02-23 19:24:00,
2013-02-23 13:29:00,32.7,-10.0,29.97,SW,215,5.8,5.8,15,0.00,FEW,OVC,0.00,WeatherDisplay:10.37,2013-02-23 19:29:00,
2013-02-23 13:34:00,33.1,-9.7,29.97,West,280,5.8,5.8,15,0.00,FEW,OVC,0.00,WeatherDisplay:10.37,2013-02-23 19:34:00,
2013-02-23 13:39:00,33.1,-9.7,29.97,WSW,241,5.8,0.0,15,0.00,FEW,OVC,0.00,WeatherDisplay:10.37,2013-02-23 19:39:00,
2013-02-23 13:44:00,32.9,-9.8,29.97,WSW,238,4.6,4.6,15,0.00,FEW,OVC,0.00,WeatherDisplay:10.37,2013-02-23 19:44:00,
2013-02-23 13:49:00,33.1,-9.7,29.97,WSW,238,0.0,2.2,15,0.00,FEW,OVC,0.00,WeatherDisplay:10.37,2013-02-23 19:49:00,
2013-02-23 13:54:00,33.4,-9.4,29.97,WSW,247,4.6,0.0,15,0.00,FEW,OVC,0.00,WeatherDisplay:10.37,2013-02-23 19:54:00,
2013-02-23 13:59:00,33.8,-9.1,29.97,WNW,294,3.5,0.0,15,0.00,FEW,OVC,0.00,WeatherDisplay:10.37,2013-02-23 19:59:00,
2013-02-23 14:04:00,34.0,-8.9,29.97,West,267,5.8,5.8,15,0.00,FEW,OVC,0.00,WeatherDisplay:10.37,2013-02-23 20:04:00,
2013-02-23 14:09:00,34.2,-8.8,29.97,West,279,3.5,3.5,15,0.00,FEW,OVC,0.00,WeatherDisplay:10.37,2013-02-23 20:09:00,
2013-02-23 14:14:00,34.3,-8.6,29.97,SW,219,5.8,0.0,15,0.00,FEW,OVC,0.00,WeatherDisplay:10.37,2013-02-23 20:14:00,
2013-02-23 14:19:00,34.2,-8.8,29.97,West,280,2.3,0.0,15,0.00,FEW,OVC,0.00,WeatherDisplay:10.37,2013-02-23 20:19:00,
2013-02-23 14:24:00,33.8,-9.1,29.97,NW,314,4.6,0.0,15,0.00,CLR,OVC,0.00,WeatherDisplay:10.37,2013-02-23 20:24:00,
2013-02-23 14:29:00,33.4,-9.4,29.97,West,263,3.5,3.6,15,0.00,CLR,OVC,0.00,WeatherDisplay:10.37,2013-02-23 20:29:00,
2013-02-23 14:34:00,33.1,-9.7,29.97,SW,219,3.5,0.0,15,0.00,CLR,OVC,0.00,WeatherDisplay:10.37,2013-02-23 20:34:00,
2013-02-23 14:39:00,32.9,-9.8,29.97,South,177,4.6,0.0,15,0.00,CLR,OVC,0.00,WeatherDisplay:10.37,2013-02-23 20:39:00,
2013-02-23 14:44:00,33.1,-9.7,29.97,WSW,246,0.0,0.0,15,0.00,CLR,OVC,0.00,WeatherDisplay:10.37,2013-02-23 20:44:00,
2013-02-23 14:50:00,33.3,-9.5,29.97,NW,304,2.3,0.0,15,0.00,CLR,OVC,0.00,WeatherDisplay:10.37,2013-02-23 20:50:00,
2013-02-23 14:55:00,33.3,-9.5,29.97,West,272,2.3,2.7,15,0.00,CLR,OVC,0.00,WeatherDisplay:10.37,2013-02-23 20:55:00,
2013-02-23 15:00:00,33.1,-9.7,29.97,NNW,329,3.5,3.5,15,0.00,CLR,OVC,0.00,WeatherDisplay:10.37,2013-02-23 21:00:00,
2013-02-23 15:05:00,32.7,-10.0,29.97,West,268,5.8,5.8,15,0.00,CLR,OVC,0.00,WeatherDisplay:10.37,2013-02-23 21:05:00,
2013-02-23 15:10:00,32.7,-10.0,29.97,NW,313,3.1,0.0,15,0.00,CLR,OVC,0.00,WeatherDisplay:10.37,2013-02-23 21:10:00,
2013-02-23 15:15:00,33.1,-9.7,29.97,WNW,285,4.6,0.0,15,0.00,CLR,OVC,0.00,WeatherDisplay:10.37,2013-02-23 21:15:00,
2013-02-23 15:20:00,32.9,-9.8,29.97,SSW,194,3.5,3.5,15,0.00,CLR,OVC,0.00,WeatherDisplay:10.37,2013-02-23 21:20:00,
2013-02-23 15:25:00,33.1,-9.7,29.97,SW,236,0.0,0.0,15,0.00,SCT,OVC,0.00,WeatherDisplay:10.37,2013-02-23 21:25:00,
2013-02-23 15:30:00,33.6,-9.2,29.97,WNW,299,0.0,0.0,15,0.00,SCT,OVC,0.00,WeatherDisplay:10.37,2013-02-23 21:30:00,
2013-02-23 15:35:00,34.3,-8.6,29.97,West,275,5.8,5.8,15,0.00,SCT,OVC,0.00,WeatherDisplay:10.37,2013-02-23 21:35:00,
2013-02-23 15:40:00,34.3,-8.6,29.97,SSW,209,2.3,0.0,15,0.00,SCT,OVC,0.00,WeatherDisplay:10.37,2013-02-23 21:40:00,
2013-02-23 15:45:00,34.3,-8.6,29.94,WSW,237,3.5,0.0,15,0.00,SCT,OVC,0.00,WeatherDisplay:10.37,2013-02-23 21:45:00,
2013-02-23 15:50:00,33.8,-9.1,29.94,WSW,257,3.5,3.5,15,0.00,SCT,OVC,0.00,WeatherDisplay:10.37,2013-02-23 21:50:00,
2013-02-23 15:55:00,33.4,-9.4,29.94,SSW,206,0.0,0.0,15,0.00,SCT,OVC,0.00,WeatherDisplay:10.37,2013-02-23 21:55:00,
2013-02-23 16:00:00,33.3,-9.5,29.94,WNW,295,2.3,0.0,15,0.00,SCT,OVC,0.00,WeatherDisplay:10.37,2013-02-23 22:00:00,
2013-02-23 16:05:00,33.1,-9.7,29.94,West,276,3.5,3.5,15,0.00,SCT,OVC,0.00,WeatherDisplay:10.37,2013-02-23 22:05:00,
2013-02-23 16:10:00,32.7,-10.0,29.94,WNW,295,0.0,0.0,15,0.00,FEW,OVC,0.00,WeatherDisplay:10.37,2013-02-23 22:10:00,
2013-02-23 16:15:00,32.7,-10.0,29.94,West,265,0.0,0.0,15,0.00,FEW,OVC,0.00,WeatherDisplay:10.37,2013-02-23 22:15:00,
2013-02-23 16:20:00,32.5,-10.1,29.94,SW,229,2.3,0.0,15,0.00,FEW,OVC,0.00,WeatherDisplay:10.37,2013-02-23 22:20:00,
2013-02-23 16:25:00,32.2,-10.4,29.94,SSW,200,3.5,0.0,15,0.00,FEW,OVC,0.00,WeatherDisplay:10.37,2013-02-23 22:25:00,
2013-02-23 16:30:00,31.8,-10.7,29.97,WSW,249,2.3,0.0,15,0.00,FEW,OVC,0.00,WeatherDisplay:10.37,2013-02-23 22:30:00,
2013-02-23 16:35:00,31.5,-11.0,29.97,SSE,166,3.5,0.0,15,0.00,FEW,OVC,0.00,WeatherDisplay:10.37,2013-02-23 22:35:00,
2013-02-23 16:40:00,31.1,-11.3,29.97,WSW,246,3.5,0.0,15,0.00,FEW,OVC,0.00,WeatherDisplay:10.37,2013-02-23 22:40:00,
2013-02-23 16:45:00,30.6,-11.7,29.97,SSE,168,0.0,0.0,15,0.00,FEW,OVC,0.00,WeatherDisplay:10.37,2013-02-23 22:45:00,
2013-02-23 16:50:00,30.2,-12.0,29.97,SSE,161,0.0,0.0,15,0.00,FEW,OVC,0.00,WeatherDisplay:10.37,2013-02-23 22:50:00,
2013-02-23 16:55:00,29.8,-12.3,29.97,South,175,2.3,0.0,15,0.00,FEW,OVC,0.00,WeatherDisplay:10.37,2013-02-23 22:55:00,
2013-02-23 17:00:00,29.5,-12.6,29.97,West,264,3.5,0.0,15,0.00,FEW,OVC,0.00,WeatherDisplay:10.37,2013-02-23 23:00:00,
2013-02-23 17:05:00,29.1,-12.9,29.97,SE,126,5.8,5.8,15,0.00,FEW,OVC,0.00,WeatherDisplay:10.37,2013-02-23 23:05:00,
2013-02-23 17:10:00,28.9,-13.0,29.97,SSW,194,0.0,0.0,15,0.00,CLR,OVC,0.00,WeatherDisplay:10.37,2013-02-23 23:10:00,
2013-02-23 17:15:00,28.8,-13.2,29.97,SSW,211,3.5,0.0,15,0.00,CLR,OVC,0.00,WeatherDisplay:10.37,2013-02-23 23:15:00,
2013-02-23 17:20:00,28.6,-13.3,29.97,SSW,207,2.3,0.0,15,0.00,CLR,OVC,0.00,WeatherDisplay:10.37,2013-02-23 23:20:00,
2013-02-23 17:25:00,28.6,-13.3,29.97,SSW,211,0.0,0.0,15,0.00,CLR,OVC,0.00,WeatherDisplay:10.37,2013-02-23 23:25:00,
2013-02-23 17:30:00,28.2,-12.3,29.97,SSE,167,0.0,0.0,16,0.00,CLR,OVC,0.00,WeatherDisplay:10.37,2013-02-23 23:30:00,
2013-02-23 17:35:00,28.0,-12.5,29.97,South,191,3.5,3.5,16,0.00,CLR,OVC,0.00,WeatherDisplay:10.37,2013-02-23 23:35:00,
2013-02-23 17:40:00,27.9,-12.6,29.97,WSW,247,0.0,0.0,16,0.00,CLR,OVC,0.00,WeatherDisplay:10.37,2013-02-23 23:40:00,
2013-02-23 17:45:00,27.7,-12.8,29.97,WSW,245,0.0,0.0,16,0.00,CLR,OVC,0.00,WeatherDisplay:10.37,2013-02-23 23:45:00,
2013-02-23 17:50:00,27.5,-12.9,29.97,SW,214,2.3,0.0,16,0.00,CLR,OVC,0.00,WeatherDisplay:10.37,2013-02-23 23:50:00,
2013-02-23 17:55:00,27.1,-13.2,29.97,SSW,209,0.0,0.0,16,0.00,CLR,OVC,0.00,WeatherDisplay:10.37,2013-02-23 23:55:00,
2013-02-23 18:00:00,27.0,-13.4,29.97,South,186,0.0,0.0,16,0.00,CLR,OVC,0.00,WeatherDisplay:10.37,2013-02-24 00:00:00,
2013-02-23 18:05:00,26.6,-13.7,29.97,SW,224,0.0,0.0,16,0.00,CLR,OVC,0.00,WeatherDisplay:10.37,2013-02-24 00:05:00,
2013-02-23 18:10:00,26.4,-13.8,29.97,South,188,0.0,0.0,16,0.00,CLR,OVC,0.00,WeatherDisplay:10.37,2013-02-24 00:10:00,
2013-02-23 18:15:00,26.2,-10.5,29.97,SSW,207,0.0,0.0,19,0.00,CLR,OVC,0.00,WeatherDisplay:10.37,2013-02-24 00:15:00,
2013-02-23 18:20:00,26.1,-10.7,29.97,South,187,0.0,0.0,19,0.00,CLR,OVC,0.00,WeatherDisplay:10.37,2013-02-24 00:20:00,
2013-02-23 18:25:00,25.9,-10.8,29.97,South,185,0.0,0.0,19,0.00,CLR,OVC,0.00,WeatherDisplay:10.37,2013-02-24 00:25:00,
2013-02-23 18:30:00,25.7,-11.0,29.97,SSW,206,0.0,0.0,19,0.00,CLR,OVC,0.00,WeatherDisplay:10.37,2013-02-24 00:30:00,
2013-02-23 18:35:00,25.3,-11.3,29.97,SSW,201,0.0,0.0,19,0.00,CLR,OVC,0.00,WeatherDisplay:10.37,2013-02-24 00:35:00,
2013-02-23 18:40:00,25.3,-11.3,29.97,SSW,198,0.0,0.0,19,0.00,CLR,OVC,0.00,WeatherDisplay:10.37,2013-02-24 00:40:00,
2013-02-23 18:45:00,25.0,-11.6,29.97,SSW,199,0.0,0.0,19,0.00,CLR,OVC,0.00,WeatherDisplay:10.37,2013-02-24 00:45:00,
2013-02-23 18:50:00,24.8,-11.7,29.97,SSW,199,0.0,0.0,19,0.00,CLR,OVC,0.00,WeatherDisplay:10.37,2013-02-24 00:50:00,
2013-02-23 18:55:00,24.4,-12.0,29.97,SSW,199,0.0,0.0,19,0.00,CLR,OVC,0.00,WeatherDisplay:10.37,2013-02-24 00:55:00,
2013-02-23 19:00:00,24.4,-12.0,29.97,SSW,196,0.0,0.0,19,0.00,CLR,OVC,0.00,WeatherDisplay:10.37,2013-02-24 01:00:00,
2013-02-23 19:05:00,24.3,-12.2,29.97,SSW,195,0.0,0.0,19,0.00,CLR,OVC,0.00,WeatherDisplay:10.37,2013-02-24 01:05:00,
2013-02-23 19:10:00,24.1,-12.3,29.97,SSW,199,0.0,0.0,19,0.00,CLR,OVC,0.00,WeatherDisplay:10.37,2013-02-24 01:10:00,
2013-02-23 19:15:00,23.9,-12.5,29.97,SSW,197,0.0,0.0,19,0.00,CLR,OVC,0.00,WeatherDisplay:10.37,2013-02-24 01:15:00,
2013-02-23 19:20:00,23.7,-12.6,29.97,SSW,196,0.0,0.0,19,0.00,CLR,OVC,0.00,WeatherDisplay:10.37,2013-02-24 01:20:00,
2013-02-23 19:25:00,23.5,-9.8,29.97,SSW,199,0.0,0.0,22,0.00,CLR,OVC,0.00,WeatherDisplay:10.37,2013-02-24 01:25:00,
2013-02-23 19:30:00,23.4,-10.0,29.97,SSW,199,0.0,0.0,22,0.00,CLR,OVC,0.00,WeatherDisplay:10.37,2013-02-24 01:30:00,
2013-02-23 19:35:00,23.2,-10.1,29.97,SSW,196,0.0,0.0,22,0.00,CLR,OVC,0.00,WeatherDisplay:10.37,2013-02-24 01:35:00,
2013-02-23 19:40:00,23.0,-10.3,29.97,SSW,200,0.0,0.0,22,0.00,CLR,OVC,0.00,WeatherDisplay:10.37,2013-02-24 01:40:00,
2013-02-23 19:45:00,22.8,-10.4,29.97,SSW,197,0.0,0.0,22,0.00,CLR,OVC,0.00,WeatherDisplay:10.37,2013-02-24 01:45:00,
2013-02-23 19:50:00,22.8,-10.4,29.97,SSW,200,0.0,0.0,22,0.00,CLR,OVC,0.00,WeatherDisplay:10.37,2013-02-24 01:50:00,
2013-02-23 19:55:00,22.8,-10.4,29.97,SSW,199,0.0,0.0,22,0.00,CLR,OVC,0.00,WeatherDisplay:10.37,2013-02-24 01:55:00,
2013-02-23 20:00:00,22.8,-7.8,29.97,SSW,199,0.0,0.0,25,0.00,CLR,OVC,0.00,WeatherDisplay:10.37,2013-02-24 02:00:00,
2013-02-23 20:06:00,22.8,-7.8,29.97,SSW,200,0.0,0.0,25,0.00,CLR,OVC,0.00,WeatherDisplay:10.37,2013-02-24 02:06:00,
2013-02-23 20:11:00,22.8,-7.8,29.97,SSW,199,0.0,0.0,25,0.00,CLR,OVC,0.00,WeatherDisplay:10.37,2013-02-24 02:11:00,
2013-02-23 20:16:00,22.6,-8.0,29.97,SSW,197,0.0,0.0,25,0.00,CLR,OVC,0.00,WeatherDisplay:10.37,2013-02-24 02:16:00,
2013-02-23 20:21:00,22.6,-8.0,29.97,SSW,202,0.0,0.0,25,0.00,CLR,OVC,0.00,WeatherDisplay:10.37,2013-02-24 02:21:00,
2013-02-23 20:26:00,22.5,-8.1,29.97,SSW,197,0.0,0.0,25,0.00,CLR,OVC,0.00,WeatherDisplay:10.37,2013-02-24 02:26:00,
2013-02-23 20:31:00,22.3,-8.3,29.97,SSW,197,0.0,0.0,25,0.00,CLR,OVC,0.00,WeatherDisplay:10.37,2013-02-24 02:31:00,
2013-02-23 20:36:00,22.1,-8.4,29.97,SSW,196,0.0,0.0,25,0.00,CLR,OVC,0.00,WeatherDisplay:10.37,2013-02-24 02:36:00,
2013-02-23 20:41:00,21.9,-7.0,29.97,SSW,199,0.0,0.0,27,0.00,CLR,OVC,0.00,WeatherDisplay:10.37,2013-02-24 02:41:00,
2013-02-23 20:46:00,21.9,-7.0,29.97,SSW,196,0.0,0.0,27,0.00,CLR,OVC,0.00,WeatherDisplay:10.37,2013-02-24 02:46:00,
2013-02-23 20:51:00,21.7,-7.2,29.97,SSW,200,0.0,0.0,27,0.00,CLR,OVC,0.00,WeatherDisplay:10.37,2013-02-24 02:51:00,
2013-02-23 20:56:00,21.6,-7.3,29.97,SSW,198,0.0,0.0,27,0.00,CLR,OVC,0.00,WeatherDisplay:10.37,2013-02-24 02:56:00,
2013-02-23 21:01:00,21.6,-7.3,29.97,SSW,198,0.0,0.0,27,0.00,CLR,OVC,0.00,WeatherDisplay:10.37,2013-02-24 03:01:00,
2013-02-23 21:06:00,21.4,-7.5,29.97,SSW,196,0.0,0.0,27,0.00,CLR,OVC,0.00,WeatherDisplay:10.37,2013-02-24 03:06:00,
2013-02-23 21:11:00,21.2,-7.6,29.97,SSW,198,0.0,0.0,27,0.00,CLR,OVC,0.00,WeatherDisplay:10.37,2013-02-24 03:11:00,
2013-02-23 21:16:00,21.2,-5.5,29.97,SSW,196,0.0,0.0,30,0.00,CLR,OVC,0.00,WeatherDisplay:10.37,2013-02-24 03:16:00,
2013-02-23 21:21:00,21.0,-5.6,29.97,SSW,199,0.0,0.0,30,0.00,CLR,OVC,0.00,WeatherDisplay:10.37,2013-02-24 03:21:00,
2013-02-23 21:26:00,21.0,-5.6,29.97,SSW,199,0.0,0.0,30,0.00,CLR,OVC,0.00,WeatherDisplay:10.37,2013-02-24 03:26:00,
2013-02-23 21:31:00,21.0,-5.6,30.00,SSW,199,0.0,0.0,30,0.00,CLR,OVC,0.00,WeatherDisplay:10.37,2013-02-24 03:31:00,
2013-02-23 21:36:00,21.0,-4.3,30.00,SSW,196,0.0,0.0,32,0.00,CLR,OVC,0.00,WeatherDisplay:10.37,2013-02-24 03:36:00,
2013-02-23 21:41:00,21.0,-4.3,30.00,SSW,197,0.0,0.0,32,0.00,CLR,OVC,0.00,WeatherDisplay:10.37,2013-02-24 03:41:00,
2013-02-23 21:46:00,21.0,-4.3,30.00,SSW,197,0.0,0.0,32,0.00,CLR,OVC,0.00,WeatherDisplay:10.37,2013-02-24 03:46:00,
2013-02-23 21:51:00,21.0,-4.3,30.00,SSW,197,0.0,0.0,32,0.00,CLR,OVC,0.00,WeatherDisplay:10.37,2013-02-24 03:51:00,
2013-02-23 21:56:00,20.8,-3.8,30.00,SSW,197,0.0,0.0,33,0.00,CLR,OVC,0.00,WeatherDisplay:10.37,2013-02-24 03:56:00,
2013-02-23 22:01:00,20.7,-4.0,29.97,SSW,199,0.0,0.0,33,0.00,CLR,OVC,0.00,WeatherDisplay:10.37,2013-02-24 04:01:00,
2013-02-23 22:06:00,20.5,-4.1,29.97,SSW,197,0.0,0.0,33,0.00,CLR,OVC,0.00,WeatherDisplay:10.37,2013-02-24 04:06:00,
2013-02-23 22:11:00,20.3,-4.3,29.97,SSW,197,0.0,0.0,33,0.00,CLR,OVC,0.00,WeatherDisplay:10.37,2013-02-24 04:11:00,
2013-02-23 22:16:00,20.3,-4.3,30.00,SSW,196,0.0,0.0,33,0.00,CLR,OVC,0.00,WeatherDisplay:10.37,2013-02-24 04:16:00,
2013-02-23 22:21:00,20.3,-4.3,30.00,SSW,200,0.0,0.0,33,0.00,CLR,OVC,0.00,WeatherDisplay:10.37,2013-02-24 04:21:00,
2013-02-23 22:26:00,20.1,-4.4,30.00,SSW,200,0.0,0.0,33,0.00,CLR,OVC,0.00,WeatherDisplay:10.37,2013-02-24 04:26:00,
2013-02-23 22:31:00,19.9,-4.6,29.97,SSW,199,0.0,0.0,33,0.00,CLR,OVC,0.00,WeatherDisplay:10.37,2013-02-24 04:31:00,
2013-02-23 22:36:00,19.8,-4.8,29.97,SSW,199,0.0,0.0,33,0.00,CLR,OVC,0.00,WeatherDisplay:10.37,2013-02-24 04:36:00,
2013-02-23 22:41:00,19.6,-4.9,29.97,SSW,196,0.0,0.0,33,0.00,CLR,OVC,0.00,WeatherDisplay:10.37,2013-02-24 04:41:00,
2013-02-23 22:46:00,19.4,-5.1,30.00,SSW,197,0.0,0.0,33,0.00,CLR,OVC,0.00,WeatherDisplay:10.37,2013-02-24 04:46:00,
2013-02-23 22:51:00,19.2,-5.2,30.00,SSW,200,0.0,0.0,33,0.00,CLR,OVC,0.00,WeatherDisplay:10.37,2013-02-24 04:51:00,
2013-02-23 22:56:00,19.0,-4.8,30.00,SSW,198,0.0,0.0,34,0.00,CLR,OVC,0.00,WeatherDisplay:10.37,2013-02-24 04:56:00,
2013-02-23 23:00:00,18.9,-4.9,29.97,SSW,199,0.0,0.0,34,0.00,CLR,OVC,0.00,WeatherDisplay:10.37,2013-02-24 05:00:00,
2013-02-23 23:01:00,18.9,-4.9,29.97,SSW,197,0.0,0.0,34,0.00,CLR,OVC,0.00,WeatherDisplay:10.37,2013-02-24 05:01:00,
2013-02-23 23:06:00,18.7,-5.1,29.97,SSW,198,0.0,0.0,34,0.00,CLR,OVC,0.00,WeatherDisplay:10.37,2013-02-24 05:06:00,
2013-02-23 23:11:00,18.7,-5.1,29.97,SSW,197,0.0,0.0,34,0.00,CLR,OVC,0.00,WeatherDisplay:10.37,2013-02-24 05:11:00,
2013-02-23 23:16:00,18.5,-5.3,29.97,SSW,199,0.0,0.0,34,0.00,CLR,OVC,0.00,WeatherDisplay:10.37,2013-02-24 05:16:00,
2013-02-23 23:21:00,18.3,-5.4,29.97,SSW,198,0.0,0.0,34,0.00,CLR,OVC,0.00,WeatherDisplay:10.37,2013-02-24 05:21:00,
2013-02-23 23:26:00,18.3,-5.4,29.97,SSW,199,0.0,0.0,34,0.00,CLR,OVC,0.00,WeatherDisplay:10.37,2013-02-24 05:26:00,
2013-02-23 23:31:00,18.3,-5.4,29.97,SSW,199,0.0,0.0,34,0.00,CLR,OVC,0.00,WeatherDisplay:10.37,2013-02-24 05:31:00,
2013-02-23 23:36:00,18.1,-5.6,29.97,SSW,199,0.0,0.0,34,0.00,CLR,OVC,0.00,WeatherDisplay:10.37,2013-02-24 05:36:00,
2013-02-23 23:41:00,18.1,-5.0,29.97,SSW,197,0.0,0.0,35,0.00,CLR,OVC,0.00,WeatherDisplay:10.37,2013-02-24 05:41:00,
2013-02-23 23:46:00,18.0,-5.1,29.97,SSW,197,0.0,0.0,35,0.00,CLR,OVC,0.00,WeatherDisplay:10.37,2013-02-24 05:46:00,
2013-02-23 23:51:00,17.8,-5.3,29.97,SSW,200,0.0,0.0,35,0.00,CLR,OVC,0.00,WeatherDisplay:10.37,2013-02-24 05:51:00,
2013-02-23 23:56:00,17.6,-5.5,29.97,SSW,199,0.0,0.0,35,0.00,CLR,OVC,0.00,WeatherDisplay:10.37,2013-02-24 05:56:00,